createdAt,value
2019-02-19T00:02:23.662Z,99077.97
2019-02-19T00:04:55.651Z,99075.25
2019-02-19T00:07:27.541Z,99063.63
2019-02-19T00:09:59.542Z,99070.64
2019-02-19T00:12:31.538Z,99072.63
2019-02-19T00:15:08.323Z,99081.28
2019-02-19T00:17:37.998Z,99086.42
2019-02-19T00:20:10.249Z,99086.81
2019-02-19T00:22:43.431Z,99091.64
2019-02-19T00:25:15.731Z,99100.39
2019-02-19T00:27:48.066Z,99101.15
2019-02-19T00:30:21.532Z,99103.55
2019-02-19T00:32:53.728Z,99107.30
2019-02-19T00:35:25.969Z,99111.92
2019-02-19T00:37:58.019Z,99123.38
2019-02-19T00:40:30.254Z,99119.09
2019-02-19T00:43:02.459Z,99119.53
2019-02-19T00:45:34.675Z,99128.31
2019-02-19T00:48:06.811Z,99135.83
2019-02-19T00:50:39.485Z,99132.51
2019-02-19T00:53:11.486Z,99137.50
2019-02-19T00:55:43.684Z,99139.91
2019-02-19T00:58:16.023Z,99143.98
2019-02-19T01:00:48.370Z,99149.31
2019-02-19T01:03:20.439Z,99147.84
2019-02-19T01:05:52.726Z,99152.44
2019-02-19T01:08:24.707Z,99155.59
2019-02-19T01:10:57.050Z,99162.07
2019-02-19T01:13:29.428Z,99168.64
2019-02-19T01:16:01.629Z,99172.18
2019-02-19T01:18:34.456Z,99178.05
2019-02-19T01:21:06.802Z,99187.88
2019-02-19T01:23:39.012Z,99188.20
2019-02-19T01:26:11.529Z,99198.42
2019-02-19T01:28:43.653Z,99211.50
2019-02-19T01:31:16.082Z,99214.22
2019-02-19T01:33:48.261Z,99223.51
2019-02-19T01:36:20.463Z,99231.94
2019-02-19T01:38:52.883Z,99238.73
2019-02-19T01:41:24.990Z,99232.80
2019-02-19T01:43:57.177Z,99237.09
2019-02-19T01:46:29.455Z,99246.70
2019-02-19T01:49:01.541Z,99262.68
2019-02-19T01:51:33.923Z,99275.33
2019-02-19T01:54:06.196Z,99276.27
2019-02-19T01:56:38.743Z,99283.48
2019-02-19T01:59:10.970Z,99297.36
2019-02-19T02:01:43.429Z,99304.47
2019-02-19T02:04:15.679Z,99309.90
2019-02-19T02:06:47.855Z,99325.05
2019-02-19T02:09:20.388Z,99325.91
2019-02-19T02:11:52.591Z,99334.88
2019-02-19T02:14:24.703Z,99345.53
2019-02-19T02:16:56.929Z,99352.22
2019-02-19T02:19:29.098Z,99351.17
2019-02-19T02:22:01.310Z,99367.37
2019-02-19T02:24:33.449Z,99369.26
2019-02-19T02:27:05.942Z,99376.55
2019-02-19T02:29:38.101Z,99375.94
2019-02-19T02:32:10.315Z,99381.48
2019-02-19T02:34:42.418Z,99390.13
2019-02-19T02:37:14.558Z,99399.34
2019-02-19T02:39:46.840Z,99405.92
2019-02-19T02:42:18.989Z,99405.28
2019-02-19T02:44:51.157Z,99402.25
2019-02-19T02:47:24.380Z,99417.61
2019-02-19T02:49:56.523Z,99422.53
2019-02-19T02:52:28.568Z,99419.17
2019-02-19T02:55:00.788Z,99425.88
2019-02-19T02:57:33.357Z,99423.05
2019-02-19T03:00:05.703Z,99416.77
2019-02-19T03:02:38.929Z,99424.08
2019-02-19T03:05:10.856Z,99427.83
2019-02-19T03:07:51.949Z,99429.52
2019-02-19T03:10:24.110Z,99425.66
2019-02-19T03:12:56.529Z,99444.66
2019-02-19T03:15:28.607Z,99450.70
2019-02-19T03:18:00.715Z,99457.09
2019-02-19T03:20:32.871Z,99467.95
2019-02-19T03:23:05.072Z,99477.13
2019-02-19T03:25:37.474Z,99485.80
2019-02-19T03:28:10.031Z,99487.99
2019-02-19T03:30:42.177Z,99480.88
2019-02-19T03:33:14.351Z,99492.80
2019-02-19T03:35:46.542Z,99494.16
2019-02-19T03:38:18.751Z,99487.05
2019-02-19T03:40:51.065Z,99505.52
2019-02-19T03:43:23.243Z,99512.84
2019-02-19T03:45:55.562Z,99515.23
2019-02-19T03:48:27.763Z,99523.38
2019-02-19T03:51:00.122Z,99514.41
2019-02-19T03:53:32.424Z,99526.09
2019-02-19T03:56:04.584Z,99517.45
2019-02-19T03:58:36.847Z,99517.95
2019-02-19T04:01:08.724Z,99521.52
2019-02-19T04:03:40.846Z,99531.02
2019-02-19T04:06:13.100Z,99535.59
2019-02-19T04:08:45.194Z,99533.63
2019-02-19T04:11:17.416Z,99543.13
2019-02-19T04:13:49.510Z,99538.20
2019-02-19T04:16:21.715Z,99547.41
2019-02-19T04:18:53.847Z,99546.34
2019-02-19T04:21:26.014Z,99554.81
2019-02-19T04:23:58.237Z,99555.02
2019-02-19T04:26:30.329Z,99563.16
2019-02-19T04:29:02.476Z,99565.17
2019-02-19T04:31:34.769Z,99576.20
2019-02-19T04:34:06.826Z,99571.84
2019-02-19T04:36:39.163Z,99567.65
2019-02-19T04:39:11.526Z,99577.68
2019-02-19T04:41:43.625Z,99578.18
2019-02-19T04:44:15.848Z,99583.61
2019-02-19T04:46:48.009Z,99589.37
2019-02-19T04:49:21.785Z,99586.86
2019-02-19T04:51:53.938Z,99592.41
2019-02-19T04:54:26.128Z,99599.61
2019-02-19T04:56:58.496Z,99602.66
2019-02-19T04:59:30.784Z,99605.70
2019-02-19T05:02:02.938Z,99604.22
2019-02-19T05:04:35.106Z,99602.66
2019-02-19T05:07:07.344Z,99595.66
2019-02-19T05:09:39.659Z,99603.19
2019-02-19T05:12:12.716Z,99600.63
2019-02-19T05:14:44.914Z,99608.08
2019-02-19T05:17:17.025Z,99611.11
2019-02-19T05:19:49.375Z,99603.05
2019-02-19T05:22:21.733Z,99597.21
2019-02-19T05:24:53.977Z,99593.34
2019-02-19T05:27:26.348Z,99592.72
2019-02-19T05:29:58.720Z,99597.03
2019-02-19T05:32:30.961Z,99591.06
2019-02-19T05:35:03.152Z,99595.88
2019-02-19T05:37:35.265Z,99598.48
2019-02-19T05:40:07.867Z,99600.55
2019-02-19T05:42:40.137Z,99604.13
2019-02-19T05:45:12.330Z,99603.80
2019-02-19T05:47:44.655Z,99598.57
2019-02-19T05:50:16.778Z,99600.45
2019-02-19T05:52:48.939Z,99596.88
2019-02-19T05:55:21.133Z,99596.38
2019-02-19T05:57:53.214Z,99595.97
2019-02-19T06:00:26.551Z,99594.29
2019-02-19T06:02:58.647Z,99599.52
2019-02-19T06:05:30.758Z,99592.10
2019-02-19T06:08:02.938Z,99594.82
2019-02-19T06:10:35.226Z,99590.54
2019-02-19T06:13:07.628Z,99586.96
2019-02-19T06:15:39.638Z,99578.91
2019-02-19T06:18:11.853Z,99578.91
2019-02-19T06:20:44.097Z,99563.34
2019-02-19T06:23:16.461Z,99574.09
2019-02-19T06:25:48.625Z,99572.53
2019-02-19T06:28:20.630Z,99565.30
2019-02-19T06:30:52.816Z,99566.33
2019-02-19T06:33:26.098Z,99556.94
2019-02-19T06:35:59.361Z,99558.83
2019-02-19T06:38:31.631Z,99551.51
2019-02-19T06:41:03.991Z,99546.61
2019-02-19T06:43:36.269Z,99538.16
2019-02-19T06:46:08.518Z,99539.08
2019-02-19T06:48:40.849Z,99545.25
2019-02-19T06:51:12.976Z,99543.48
2019-02-19T06:53:45.330Z,99541.59
2019-02-19T06:56:17.600Z,99536.07
2019-02-19T06:58:50.851Z,99535.42
2019-02-19T07:01:36.797Z,99525.59
2019-02-19T07:04:15.359Z,99523.08
2019-02-19T07:06:47.787Z,99520.69
2019-02-19T07:09:20.138Z,99525.59
2019-02-19T07:11:52.345Z,99535.42
2019-02-19T07:14:24.459Z,99537.10
2019-02-19T07:16:56.799Z,99534.71
2019-02-19T07:19:28.920Z,99525.41
2019-02-19T07:22:01.609Z,99522.70
2019-02-19T07:24:34.048Z,99523.11
2019-02-19T07:27:06.262Z,99527.39
2019-02-19T07:29:38.418Z,99520.81
2019-02-19T07:32:10.778Z,99507.73
2019-02-19T07:34:43.183Z,99514.02
2019-02-19T07:37:15.496Z,99501.80
2019-02-19T07:39:47.891Z,99499.59
2019-02-19T07:42:20.305Z,99495.84
2019-02-19T07:44:52.603Z,99489.91
2019-02-19T07:47:24.948Z,99488.42
2019-02-19T07:49:57.125Z,99487.80
2019-02-19T07:52:29.595Z,99487.48
2019-02-19T07:55:01.811Z,99484.98
2019-02-19T07:57:33.979Z,99477.69
2019-02-19T08:00:06.183Z,99471.93
2019-02-19T08:02:40.072Z,99467.86
2019-02-19T08:05:12.326Z,99465.25
2019-02-19T08:07:44.514Z,99460.77
2019-02-19T08:10:17.783Z,99456.16
2019-02-19T08:12:49.941Z,99452.61
2019-02-19T08:15:22.401Z,99456.90
2019-02-19T08:17:54.585Z,99447.39
2019-02-19T08:20:26.963Z,99448.42
2019-02-19T08:22:59.530Z,99451.14
2019-02-19T08:25:32.835Z,99449.25
2019-02-19T08:28:04.926Z,99436.53
2019-02-19T08:30:37.179Z,99421.27
2019-02-19T08:33:08.303Z,99426.17
2019-02-19T08:35:40.754Z,99422.95
2019-02-19T08:38:13.160Z,99419.17
2019-02-19T08:40:45.299Z,99425.13
2019-02-19T08:43:17.590Z,99420.84
2019-02-19T08:45:49.943Z,99418.13
2019-02-19T08:48:22.118Z,99413.02
2019-02-19T08:50:54.384Z,99409.77
2019-02-19T08:53:26.898Z,99414.50
2019-02-19T08:55:59.068Z,99419.07
2019-02-19T08:58:31.322Z,99412.28
2019-02-19T09:01:03.899Z,99422.44
2019-02-19T09:03:36.072Z,99422.72
2019-02-19T09:06:08.316Z,99418.65
2019-02-19T09:08:40.491Z,99418.65
2019-02-19T09:11:12.636Z,99414.07
2019-02-19T09:13:44.908Z,99412.72
2019-02-19T09:16:17.248Z,99405.92
2019-02-19T09:18:51.028Z,99408.43
2019-02-19T09:21:23.070Z,99401.95
2019-02-19T09:23:55.113Z,99404.67
2019-02-19T09:26:27.410Z,99400.28
2019-02-19T09:28:59.631Z,99401.63
2019-02-19T09:31:32.544Z,99399.77
2019-02-19T09:34:04.653Z,99397.88
2019-02-19T09:36:36.866Z,99405.28
2019-02-19T09:39:09.047Z,99397.34
2019-02-19T09:41:41.604Z,99402.56
2019-02-19T09:44:13.806Z,99407.50
2019-02-19T09:46:46.208Z,99415.44
2019-02-19T09:49:18.560Z,99414.08
2019-02-19T09:51:50.920Z,99412.72
2019-02-19T09:54:23.086Z,99411.87
2019-02-19T09:56:55.423Z,99417.73
2019-02-19T09:59:27.631Z,99412.51
2019-02-19T10:02:00.331Z,99419.09
2019-02-19T10:04:32.564Z,99417.52
2019-02-19T10:07:04.926Z,99416.38
2019-02-19T10:09:37.272Z,99416.69
2019-02-19T10:12:09.520Z,99408.33
2019-02-19T10:14:41.712Z,99409.14
2019-02-19T10:17:14.000Z,99401.84
2019-02-19T10:19:46.202Z,99396.48
2019-02-19T10:22:18.684Z,99399.20
2019-02-19T10:24:52.405Z,99398.48
2019-02-19T10:27:24.711Z,99403.28
2019-02-19T10:29:56.880Z,99403.92
2019-02-19T10:32:29.288Z,99409.14
2019-02-19T10:35:01.423Z,99415.11
2019-02-19T10:37:33.849Z,99420.13
2019-02-19T10:40:06.238Z,99417.91
2019-02-19T10:42:38.507Z,99421.27
2019-02-19T10:45:11.303Z,99415.08
2019-02-19T10:47:43.877Z,99418.33
2019-02-19T10:50:16.047Z,99423.02
2019-02-19T10:52:48.258Z,99432.25
2019-02-19T10:55:20.418Z,99434.22
2019-02-19T10:57:52.681Z,99437.25
2019-02-19T11:00:25.356Z,99432.11
2019-02-19T11:02:57.486Z,99424.59
2019-02-19T11:05:29.624Z,99418.33
2019-02-19T11:08:01.724Z,99429.49
2019-02-19T11:10:33.844Z,99421.13
2019-02-19T11:13:06.163Z,99417.68
2019-02-19T11:15:39.890Z,99419.04
2019-02-19T11:18:12.145Z,99420.40
2019-02-19T11:20:44.624Z,99423.22
2019-02-19T11:23:16.848Z,99426.23
2019-02-19T11:25:49.272Z,99438.78
2019-02-19T11:28:21.256Z,99442.33
2019-02-19T11:30:53.626Z,99442.66
2019-02-19T11:33:25.671Z,99443.69
2019-02-19T11:35:58.054Z,99453.63
2019-02-19T11:38:30.609Z,99442.75
2019-02-19T11:41:02.867Z,99441.72
2019-02-19T11:43:35.094Z,99436.56
2019-02-19T11:46:07.672Z,99443.90
2019-02-19T11:48:39.842Z,99450.48
2019-02-19T11:51:12.257Z,99451.34
2019-02-19T11:53:44.471Z,99447.86
2019-02-19T11:56:16.864Z,99457.70
2019-02-19T11:58:48.912Z,99450.59
2019-02-19T12:01:21.167Z,99450.16
2019-02-19T12:03:53.417Z,99455.91
2019-02-19T12:06:25.529Z,99467.12
2019-02-19T12:08:57.962Z,99468.47
2019-02-19T12:11:30.348Z,99472.63
2019-02-19T12:14:02.454Z,99480.28
2019-02-19T12:16:35.274Z,99481.33
2019-02-19T12:19:07.384Z,99485.00
2019-02-19T12:21:39.664Z,99487.38
2019-02-19T12:24:11.992Z,99486.69
2019-02-19T12:26:44.112Z,99491.09
2019-02-19T12:29:16.427Z,99487.00
2019-02-19T12:31:48.685Z,99490.87
2019-02-19T12:34:21.019Z,99495.45
2019-02-19T12:36:53.210Z,99503.72
2019-02-19T12:39:25.460Z,99511.16
2019-02-19T12:41:57.625Z,99509.88
2019-02-19T12:44:29.868Z,99512.41
2019-02-19T12:47:02.463Z,99511.98
2019-02-19T12:49:35.309Z,99520.36
2019-02-19T12:52:08.616Z,99522.76
2019-02-19T12:54:40.858Z,99522.45
2019-02-19T12:57:14.686Z,99527.58
2019-02-19T12:59:47.261Z,99537.31
2019-02-19T13:02:19.767Z,99541.28
2019-02-19T13:04:53.138Z,99539.09
2019-02-19T13:07:25.214Z,99544.22
2019-02-19T13:09:58.302Z,99549.36
2019-02-19T13:12:30.737Z,99541.20
2019-02-19T13:15:03.030Z,99549.87
2019-02-19T13:17:36.454Z,99558.88
2019-02-19T13:20:10.125Z,99555.84
2019-02-19T13:22:42.272Z,99555.84
2019-02-19T13:25:15.519Z,99559.39
2019-02-19T13:27:47.953Z,99565.15
2019-02-19T13:30:20.216Z,99569.44
2019-02-19T13:32:52.372Z,99558.67
2019-02-19T13:35:24.521Z,99558.35
2019-02-19T13:37:56.898Z,99562.22
2019-02-19T13:40:29.300Z,99574.78
2019-02-19T13:43:01.663Z,99567.66
2019-02-19T13:45:34.238Z,99566.83
2019-02-19T13:48:06.446Z,99571.73
2019-02-19T13:50:38.677Z,99573.63
2019-02-19T13:53:30.461Z,99580.72
2019-02-19T13:56:04.205Z,99577.71
2019-02-19T13:58:36.414Z,99589.41
2019-02-19T14:01:09.604Z,99598.11
2019-02-19T14:03:41.790Z,99596.22
2019-02-19T14:06:14.068Z,99606.05
2019-02-19T14:08:46.080Z,99609.92
2019-02-19T14:11:18.395Z,99615.90
2019-02-19T14:14:05.411Z,99617.26
2019-02-19T14:16:47.548Z,99615.05
2019-02-19T14:19:38.010Z,99619.66
2019-02-19T14:22:29.943Z,99618.30
2019-02-19T14:25:14.215Z,99620.48
2019-02-19T14:28:03.787Z,99633.77
2019-02-19T14:30:55.689Z,99646.86
2019-02-19T14:33:55.498Z,99650.94
2019-02-19T14:36:44.923Z,99656.38
2019-02-19T14:39:48.740Z,99669.98
2019-02-19T14:42:46.776Z,99675.74
2019-02-19T14:45:52.915Z,99678.97
2019-02-19T14:48:46.695Z,99668.94
2019-02-19T14:51:52.970Z,99664.00
2019-02-19T14:54:48.896Z,99651.77
2019-02-19T14:57:30.983Z,99652.63
2019-02-19T15:00:24.970Z,99661.40
2019-02-19T15:03:16.613Z,99666.84
2019-02-19T15:06:13.541Z,99672.28
2019-02-19T15:09:16.786Z,99674.58
2019-02-19T15:12:07.818Z,99667.77
2019-02-19T15:15:01.618Z,99663.08
2019-02-19T15:17:42.565Z,99670.92
2019-02-19T15:20:31.783Z,99671.24
2019-02-19T15:23:31.772Z,99674.47
2019-02-19T15:26:20.947Z,99682.33
2019-02-19T15:29:10.623Z,99683.98
2019-02-19T15:31:58.828Z,99690.28
2019-02-19T15:34:50.091Z,99706.28
2019-02-19T15:37:28.403Z,99704.92
2019-02-19T15:40:22.107Z,99713.08
2019-02-19T15:43:07.765Z,99723.14
2019-02-19T15:45:57.038Z,99722.92
2019-02-19T15:48:54.148Z,99725.65
2019-02-19T15:52:03.404Z,99730.02
2019-02-19T15:54:52.812Z,99735.46
2019-02-19T15:57:42.847Z,99744.98
2019-02-19T16:00:40.003Z,99750.42
2019-02-19T16:03:19.154Z,99756.19
2019-02-19T16:06:22.162Z,99762.66
2019-02-19T16:09:03.513Z,99761.09
2019-02-19T16:11:48.468Z,99752.94
2019-02-19T16:14:39.238Z,99744.48
2019-02-19T16:17:28.388Z,99750.75
2019-02-19T16:20:06.790Z,99758.38
2019-02-19T16:23:00.511Z,99763.11
2019-02-19T16:25:48.093Z,99752.43
2019-02-19T16:28:30.747Z,99746.78
2019-02-19T16:31:21.609Z,99744.27
2019-02-19T16:34:27.908Z,99735.00
2019-02-19T16:37:21.765Z,99736.58
2019-02-19T16:40:11.492Z,99739.94
2019-02-19T16:43:05.852Z,99740.13
2019-02-19T16:45:56.928Z,99741.81
2019-02-19T16:48:53.686Z,99740.66
2019-02-19T16:51:42.931Z,99738.98
2019-02-19T16:54:35.656Z,99738.69
2019-02-19T16:57:29.515Z,99747.90
2019-02-19T17:00:09.386Z,99746.73
2019-02-19T17:02:57.952Z,99739.50
2019-02-19T17:05:36.750Z,99728.83
2019-02-19T17:08:27.443Z,99730.72
2019-02-19T17:11:10.480Z,99732.39
2019-02-19T17:14:20.150Z,99735.72
2019-02-19T17:17:17.246Z,99736.98
2019-02-19T17:20:04.745Z,99741.25
2019-02-19T17:23:03.662Z,99738.12
2019-02-19T17:25:53.243Z,99738.98
2019-02-19T17:28:47.544Z,99738.00
2019-02-19T17:31:30.628Z,99745.75
2019-02-19T17:34:30.883Z,99740.02
2019-02-19T17:37:18.314Z,99731.95
2019-02-19T17:40:15.468Z,99726.79
2019-02-19T17:43:09.759Z,99732.87
2019-02-19T17:46:13.105Z,99734.63
2019-02-19T17:49:05.731Z,99733.48
2019-02-19T17:52:08.644Z,99735.38
2019-02-19T17:54:58.601Z,99721.66
2019-02-19T17:57:38.401Z,99721.43
2019-02-19T18:00:23.719Z,99722.14
2019-02-19T18:03:26.782Z,99713.86
2019-02-19T18:09:01.433Z,99717.73
2019-02-19T18:11:56.621Z,99722.89
2019-02-19T18:15:05.997Z,99713.86
2019-02-19T18:18:05.672Z,99719.05
2019-02-19T18:20:47.110Z,99720.31
2019-02-19T18:23:12.215Z,99723.14
2019-02-19T18:25:44.728Z,99729.09
2019-02-19T18:28:17.190Z,99730.67
2019-02-19T18:30:50.842Z,99728.41
2019-02-19T18:33:23.085Z,99729.95
2019-02-19T18:35:55.412Z,99731.53
2019-02-19T18:38:27.752Z,99730.06
2019-02-19T18:41:00.080Z,99728.80
2019-02-19T18:43:32.349Z,99731.10
2019-02-19T18:46:04.737Z,99732.89
2019-02-19T18:48:37.112Z,99734.05
2019-02-19T18:51:09.554Z,99725.98
2019-02-19T18:53:41.932Z,99728.70
2019-02-19T18:56:14.341Z,99726.59
2019-02-19T18:58:46.742Z,99720.42
2019-02-19T19:01:18.986Z,99720.74
2019-02-19T19:03:51.093Z,99717.16
2019-02-19T19:06:23.502Z,99720.85
2019-02-19T19:08:55.895Z,99725.16
2019-02-19T19:11:28.363Z,99740.53
2019-02-19T19:14:00.578Z,99744.72
2019-02-19T19:16:32.849Z,99724.72
2019-02-19T19:19:05.118Z,99747.13
2019-02-19T19:21:37.611Z,99745.69
2019-02-19T19:24:10.034Z,99753.43
2019-02-19T19:26:42.522Z,99745.58
2019-02-19T19:29:14.884Z,99729.64
2019-02-19T19:31:47.407Z,99734.87
2019-02-19T19:34:19.588Z,99739.81
2019-02-19T19:36:52.120Z,99733.39
2019-02-19T19:39:24.742Z,99725.22
2019-02-19T19:41:57.207Z,99720.42
2019-02-19T19:44:29.467Z,99728.16
2019-02-19T19:47:03.066Z,99723.97
2019-02-19T19:49:35.465Z,99725.33
2019-02-19T19:52:07.924Z,99732.68
2019-02-19T19:54:40.326Z,99741.06
2019-02-19T19:57:13.622Z,99744.62
2019-02-19T19:59:46.050Z,99738.02
2019-02-19T20:02:19.966Z,99734.15
2019-02-19T20:04:53.318Z,99734.25
2019-02-19T20:07:25.561Z,99729.74
2019-02-19T20:09:58.028Z,99731.53
2019-02-19T20:12:30.495Z,99719.59
2019-02-19T20:15:02.978Z,99715.19
2019-02-19T20:17:35.328Z,99708.28
2019-02-19T20:20:08.153Z,99703.04
2019-02-19T20:22:40.595Z,99705.05
2019-02-19T20:25:13.116Z,99703.97
2019-02-19T20:27:45.639Z,99698.52
2019-02-19T20:30:18.329Z,99700.53
2019-02-19T20:32:50.917Z,99689.00
2019-02-19T20:35:23.430Z,99698.02
2019-02-19T20:37:55.762Z,99698.95
2019-02-19T20:40:28.334Z,99704.91
2019-02-19T20:43:00.601Z,99702.00
2019-02-19T20:45:33.201Z,99692.97
2019-02-19T20:48:05.842Z,99692.80
2019-02-19T20:50:38.389Z,99696.13
2019-02-19T20:53:10.751Z,99691.44
2019-02-19T20:55:43.134Z,99691.44
2019-02-19T20:58:15.558Z,99697.70
2019-02-19T21:00:47.754Z,99706.09
2019-02-19T21:03:20.009Z,99713.22
2019-02-19T21:05:52.445Z,99709.53
2019-02-19T21:08:24.776Z,99711.53
2019-02-19T21:10:57.029Z,99706.30
2019-02-19T21:13:29.309Z,99704.62
2019-02-19T21:16:01.697Z,99708.99
2019-02-19T21:18:34.088Z,99699.89
2019-02-19T21:21:07.365Z,99698.23
2019-02-19T21:23:39.582Z,99697.06
2019-02-19T21:26:11.879Z,99690.25
2019-02-19T21:28:44.298Z,99681.80
2019-02-19T21:31:16.780Z,99690.79
2019-02-19T21:33:49.099Z,99683.98
2019-02-19T21:36:21.479Z,99673.84
2019-02-19T21:38:53.885Z,99673.41
2019-02-19T21:41:26.252Z,99680.00
2019-02-19T21:43:58.637Z,99683.98
2019-02-19T21:46:31.014Z,99678.53
2019-02-19T21:49:03.229Z,99676.13
2019-02-19T21:51:35.537Z,99666.28
2019-02-19T21:54:07.879Z,99661.05
2019-02-19T21:56:41.734Z,99653.41
2019-02-19T21:59:15.307Z,99652.13
2019-02-19T22:01:47.588Z,99641.66
2019-02-19T22:04:20.047Z,99643.34
2019-02-19T22:06:52.331Z,99656.14
2019-02-19T22:09:24.595Z,99658.94
2019-02-19T22:11:56.880Z,99660.00
2019-02-19T22:14:29.205Z,99660.30
2019-02-19T22:17:01.471Z,99657.06
2019-02-19T22:19:33.763Z,99659.36
2019-02-19T22:22:10.431Z,99656.75
2019-02-19T22:24:42.720Z,99655.06
2019-02-19T22:27:15.064Z,99653.41
2019-02-19T22:29:47.387Z,99657.79
2019-02-19T22:32:21.035Z,99651.95
2019-02-19T22:34:53.358Z,99658.00
2019-02-19T22:37:25.825Z,99653.62
2019-02-19T22:39:58.314Z,99652.55
2019-02-19T22:42:31.711Z,99657.72
2019-02-19T22:45:04.130Z,99658.22
2019-02-19T22:47:37.428Z,99664.20
2019-02-19T22:50:09.841Z,99663.67
2019-02-19T22:52:42.088Z,99666.39
2019-02-19T22:55:42.206Z,99664.73
2019-02-19T22:58:14.528Z,99660.33
2019-02-19T23:01:14.806Z,99653.84
2019-02-19T23:03:47.508Z,99645.67
2019-02-19T23:06:19.902Z,99652.98
2019-02-19T23:08:52.378Z,99659.15
2019-02-19T23:11:25.838Z,99655.92
2019-02-19T23:13:58.250Z,99649.11
2019-02-19T23:16:30.765Z,99656.14
2019-02-19T23:19:03.333Z,99653.41
2019-02-19T23:21:36.120Z,99651.30
2019-02-19T23:24:08.517Z,99658.86
2019-02-19T23:26:40.854Z,99658.11
2019-02-19T23:29:13.496Z,99656.35
2019-02-19T23:31:45.819Z,99653.41
2019-02-19T23:34:18.393Z,99652.48
2019-02-19T23:37:08.099Z,99659.30
2019-02-19T23:39:43.543Z,99654.89
2019-02-19T23:42:14.708Z,99658.97
2019-02-19T23:44:47.364Z,99663.38
2019-02-19T23:47:19.768Z,99657.39
2019-02-19T23:49:52.226Z,99662.02
2019-02-19T23:52:30.271Z,99664.73
2019-02-19T23:54:58.530Z,99673.95
2019-02-19T23:57:30.926Z,99676.35
